sensor_id;sensor_type;location;lat;lon;timestamp;P1;durP1;ratioP1;P2;durP2;ratioP2
12418;SDS011;6273;52.312;9.178;2022-08-20T07:42:00;27.13;;;22.67;;
12418;SDS011;6273;52.312;9.178;2022-08-20T07:44:31;27.30;;;23.90;;
12418;SDS011;6273;52.312;9.178;2022-08-20T07:50:00;24.60;;;21.97;;
12418;SDS011;6273;52.312;9.178;2022-08-20T07:52:26;24.23;;;21.63;;
12418;SDS011;6273;52.312;9.178;2022-08-20T07:54:51;23.33;;;20.90;;
12418;SDS011;6273;52.312;9.178;2022-08-20T08:04:18;22.53;;;20.10;;
12418;SDS011;6273;52.312;9.178;2022-08-20T08:15:21;25.60;;;21.53;;
12418;SDS011;6273;52.312;9.178;2022-08-20T08:23:33;22.40;;;20.00;;
12418;SDS011;6273;52.312;9.178;2022-08-20T09:11:43;15.80;;;10.53;;
12418;SDS011;6273;52.312;9.178;2022-08-20T09:14:11;14.70;;;12.50;;
12418;SDS011;6273;52.312;9.178;2022-08-20T09:22:01;14.70;;;13.20;;
12418;SDS011;6273;52.312;9.178;2022-08-20T09:28:30;13.43;;;11.93;;
12418;SDS011;6273;52.312;9.178;2022-08-20T09:44:55;12.40;;;11.30;;
12418;SDS011;6273;52.312;9.178;2022-08-20T09:50:13;10.60;;;9.70;;
12418;SDS011;6273;52.312;9.178;2022-08-20T09:52:54;10.03;;;9.30;;
12418;SDS011;6273;52.312;9.178;2022-08-20T09:59:35;11.83;;;10.83;;
12418;SDS011;6273;52.312;9.178;2022-08-20T10:05:17;11.57;;;10.47;;
12418;SDS011;6273;52.312;9.178;2022-08-20T10:07:43;10.97;;;10.07;;
12418;SDS011;6273;52.312;9.178;2022-08-20T10:10:10;11.67;;;10.30;;
12418;SDS011;6273;52.312;9.178;2022-08-20T10:12:37;14.73;;;11.30;;
12418;SDS011;6273;52.312;9.178;2022-08-20T10:15:05;10.37;;;9.43;;
12418;SDS011;6273;52.312;9.178;2022-08-20T10:17:31;8.60;;;8.00;;
12418;SDS011;6273;52.312;9.178;2022-08-20T10:19:57;6.17;;;5.67;;
12418;SDS011;6273;52.312;9.178;2022-08-20T10:22:23;4.30;;;4.10;;
12418;SDS011;6273;52.312;9.178;2022-08-20T10:24:51;5.17;;;4.77;;
12418;SDS011;6273;52.312;9.178;2022-08-20T10:27:16;5.07;;;4.43;;
12418;SDS011;6273;52.312;9.178;2022-08-20T10:29:42;5.07;;;4.30;;
12418;SDS011;6273;52.312;9.178;2022-08-20T10:32:12;5.00;;;4.60;;
12418;SDS011;6273;52.312;9.178;2022-08-20T10:34:39;4.97;;;4.47;;
12418;SDS011;6273;52.312;9.178;2022-08-20T10:46:22;3.90;;;3.60;;
12418;SDS011;6273;52.312;9.178;2022-08-20T10:48:47;4.67;;;4.47;;
12418;SDS011;6273;52.312;9.178;2022-08-20T10:51:13;3.40;;;3.20;;
12418;SDS011;6273;52.312;9.178;2022-08-20T10:53:39;5.77;;;3.47;;
12418;SDS011;6273;52.312;9.178;2022-08-20T10:56:05;3.97;;;3.67;;
12418;SDS011;6273;52.312;9.178;2022-08-20T10:58:30;3.67;;;3.47;;
12418;SDS011;6273;52.312;9.178;2022-08-20T11:00:56;3.03;;;2.83;;
12418;SDS011;6273;52.312;9.178;2022-08-20T11:03:22;3.87;;;2.77;;
12418;SDS011;6273;52.312;9.178;2022-08-20T11:05:47;4.67;;;4.37;;
12418;SDS011;6273;52.312;9.178;2022-08-20T11:08:13;4.03;;;3.80;;
12418;SDS011;6273;52.312;9.178;2022-08-20T11:10:39;4.20;;;3.70;;
12418;SDS011;6273;52.312;9.178;2022-08-20T11:13:05;4.97;;;4.67;;
12418;SDS011;6273;52.312;9.178;2022-08-20T11:15:33;4.03;;;3.83;;
12418;SDS011;6273;52.312;9.178;2022-08-20T11:18:01;4.73;;;4.33;;
12418;SDS011;6273;52.312;9.178;2022-08-20T11:20:27;3.80;;;3.57;;
12418;SDS011;6273;52.312;9.178;2022-08-20T11:22:55;3.87;;;3.57;;
12418;SDS011;6273;52.312;9.178;2022-08-20T11:25:21;4.40;;;4.00;;
12418;SDS011;6273;52.312;9.178;2022-08-20T11:50:34;6.20;;;4.60;;
12418;SDS011;6273;52.312;9.178;2022-08-20T11:52:59;5.30;;;4.90;;
12418;SDS011;6273;52.312;9.178;2022-08-20T11:55:25;5.63;;;4.67;;
12418;SDS011;6273;52.312;9.178;2022-08-20T12:21:53;3.57;;;3.30;;
12418;SDS011;6273;52.312;9.178;2022-08-20T12:24:18;2.80;;;2.43;;
12418;SDS011;6273;52.312;9.178;2022-08-20T12:26:51;3.73;;;2.70;;
12418;SDS011;6273;52.312;9.178;2022-08-20T12:29:58;3.97;;;3.37;;
12418;SDS011;6273;52.312;9.178;2022-08-20T12:32:26;5.37;;;3.20;;
12418;SDS011;6273;52.312;9.178;2022-08-20T12:34:53;3.33;;;3.10;;
12418;SDS011;6273;52.312;9.178;2022-08-20T13:08:38;3.20;;;3.00;;
12418;SDS011;6273;52.312;9.178;2022-08-20T13:33:23;2.60;;;2.07;;
12418;SDS011;6273;52.312;9.178;2022-08-20T13:42:46;6.33;;;2.30;;
12418;SDS011;6273;52.312;9.178;2022-08-20T13:45:13;2.87;;;2.73;;
12418;SDS011;6273;52.312;9.178;2022-08-20T13:47:39;2.97;;;2.43;;
12418;SDS011;6273;52.312;9.178;2022-08-20T13:50:08;2.33;;;2.23;;
12418;SDS011;6273;52.312;9.178;2022-08-20T13:52:39;3.10;;;2.80;;
12418;SDS011;6273;52.312;9.178;2022-08-20T13:55:06;3.10;;;2.33;;
12418;SDS011;6273;52.312;9.178;2022-08-20T13:57:33;2.43;;;2.27;;
12418;SDS011;6273;52.312;9.178;2022-08-20T13:59:59;3.10;;;2.27;;
12418;SDS011;6273;52.312;9.178;2022-08-20T14:02:25;2.90;;;1.97;;
12418;SDS011;6273;52.312;9.178;2022-08-20T14:04:51;2.37;;;1.87;;
12418;SDS011;6273;52.312;9.178;2022-08-20T14:33:10;3.20;;;1.73;;
12418;SDS011;6273;52.312;9.178;2022-08-20T14:35:36;3.60;;;2.50;;
12418;SDS011;6273;52.312;9.178;2022-08-20T14:38:02;2.17;;;1.70;;
12418;SDS011;6273;52.312;9.178;2022-08-20T14:40:27;2.97;;;2.27;;
12418;SDS011;6273;52.312;9.178;2022-08-20T14:42:53;5.00;;;1.70;;
12418;SDS011;6273;52.312;9.178;2022-08-20T14:45:19;5.67;;;2.43;;
12418;SDS011;6273;52.312;9.178;2022-08-20T14:47:47;3.60;;;2.20;;
12418;SDS011;6273;52.312;9.178;2022-08-20T14:50:33;5.27;;;3.07;;
12418;SDS011;6273;52.312;9.178;2022-08-20T14:52:59;3.40;;;2.40;;
12418;SDS011;6273;52.312;9.178;2022-08-20T14:55:27;2.57;;;1.67;;
12418;SDS011;6273;52.312;9.178;2022-08-20T15:00:29;4.20;;;2.07;;
12418;SDS011;6273;52.312;9.178;2022-08-20T15:02:57;2.50;;;2.23;;
12418;SDS011;6273;52.312;9.178;2022-08-20T15:05:23;2.00;;;1.67;;
12418;SDS011;6273;52.312;9.178;2022-08-20T15:13:21;3.87;;;2.60;;
12418;SDS011;6273;52.312;9.178;2022-08-20T15:15:46;4.17;;;2.43;;
12418;SDS011;6273;52.312;9.178;2022-08-20T15:18:12;8.07;;;2.20;;
12418;SDS011;6273;52.312;9.178;2022-08-20T15:20:37;9.87;;;2.37;;
12418;SDS011;6273;52.312;9.178;2022-08-20T15:23:03;1.87;;;1.70;;
12418;SDS011;6273;52.312;9.178;2022-08-20T15:25:30;2.13;;;1.57;;
12418;SDS011;6273;52.312;9.178;2022-08-20T15:27:58;4.43;;;1.73;;
12418;SDS011;6273;52.312;9.178;2022-08-20T15:30:25;3.60;;;1.73;;
12418;SDS011;6273;52.312;9.178;2022-08-20T15:32:52;2.97;;;1.80;;
12418;SDS011;6273;52.312;9.178;2022-08-20T15:35:18;9.00;;;2.30;;
12418;SDS011;6273;52.312;9.178;2022-08-20T16:04:27;2.93;;;1.97;;
12418;SDS011;6273;52.312;9.178;2022-08-20T16:12:23;5.70;;;1.80;;
12418;SDS011;6273;52.312;9.178;2022-08-20T16:15:04;4.27;;;1.93;;
12418;SDS011;6273;52.312;9.178;2022-08-20T16:18:10;6.03;;;2.00;;
12418;SDS011;6273;52.312;9.178;2022-08-20T16:20:43;5.30;;;2.47;;
12418;SDS011;6273;52.312;9.178;2022-08-20T16:23:11;4.40;;;1.87;;
12418;SDS011;6273;52.312;9.178;2022-08-20T16:25:49;3.57;;;2.00;;
12418;SDS011;6273;52.312;9.178;2022-08-20T16:28:21;4.17;;;2.00;;
12418;SDS011;6273;52.312;9.178;2022-08-20T16:30:51;2.00;;;1.40;;
12418;SDS011;6273;52.312;9.178;2022-08-20T16:33:51;9.63;;;1.70;;
12418;SDS011;6273;52.312;9.178;2022-08-20T16:53:26;5.60;;;2.33;;
12418;SDS011;6273;52.312;9.178;2022-08-20T17:04:18;3.07;;;1.90;;
12418;SDS011;6273;52.312;9.178;2022-08-20T17:10:18;3.17;;;1.57;;
12418;SDS011;6273;52.312;9.178;2022-08-20T17:15:41;3.00;;;1.70;;
12418;SDS011;6273;52.312;9.178;2022-08-20T17:18:15;1.77;;;1.60;;
12418;SDS011;6273;52.312;9.178;2022-08-20T17:21:00;2.87;;;2.17;;
12418;SDS011;6273;52.312;9.178;2022-08-20T17:23:36;6.20;;;2.60;;
12418;SDS011;6273;52.312;9.178;2022-08-20T17:26:04;6.73;;;2.03;;
12418;SDS011;6273;52.312;9.178;2022-08-20T17:28:58;4.90;;;1.60;;
12418;SDS011;6273;52.312;9.178;2022-08-20T17:31:32;4.23;;;2.20;;
12418;SDS011;6273;52.312;9.178;2022-08-20T17:33:59;7.00;;;2.10;;
12418;SDS011;6273;52.312;9.178;2022-08-20T17:36:25;4.40;;;1.70;;
12418;SDS011;6273;52.312;9.178;2022-08-20T17:38:52;6.37;;;2.27;;
12418;SDS011;6273;52.312;9.178;2022-08-20T17:44:05;4.03;;;2.10;;
12418;SDS011;6273;52.312;9.178;2022-08-20T17:46:34;3.23;;;2.07;;
12418;SDS011;6273;52.312;9.178;2022-08-20T17:49:06;3.70;;;2.07;;
12418;SDS011;6273;52.312;9.178;2022-08-20T17:51:38;4.43;;;2.53;;
12418;SDS011;6273;52.312;9.178;2022-08-20T17:54:11;7.00;;;2.50;;
12418;SDS011;6273;52.312;9.178;2022-08-20T17:59:16;8.00;;;2.10;;
12418;SDS011;6273;52.312;9.178;2022-08-20T18:01:49;4.83;;;2.33;;
12418;SDS011;6273;52.312;9.178;2022-08-20T18:04:15;3.60;;;1.90;;
12418;SDS011;6273;52.312;9.178;2022-08-20T18:09:51;2.40;;;2.03;;
12418;SDS011;6273;52.312;9.178;2022-08-20T18:12:44;7.90;;;2.50;;
12418;SDS011;6273;52.312;9.178;2022-08-20T18:15:48;3.80;;;2.10;;
12418;SDS011;6273;52.312;9.178;2022-08-20T18:23:46;4.33;;;1.50;;
12418;SDS011;6273;52.312;9.178;2022-08-20T18:29:23;5.17;;;1.60;;
12418;SDS011;6273;52.312;9.178;2022-08-20T18:31:58;7.80;;;2.10;;
12418;SDS011;6273;52.312;9.178;2022-08-20T18:37:19;6.67;;;2.23;;
12418;SDS011;6273;52.312;9.178;2022-08-20T18:39:43;2.93;;;1.80;;
12418;SDS011;6273;52.312;9.178;2022-08-20T18:42:28;5.07;;;2.27;;
12418;SDS011;6273;52.312;9.178;2022-08-20T18:44:58;6.50;;;2.47;;
12418;SDS011;6273;52.312;9.178;2022-08-20T18:47:41;8.87;;;2.70;;
12418;SDS011;6273;52.312;9.178;2022-08-20T18:59:44;1.70;;;1.30;;
12418;SDS011;6273;52.312;9.178;2022-08-20T19:02:20;6.50;;;2.10;;
12418;SDS011;6273;52.312;9.178;2022-08-20T19:04:57;3.03;;;1.73;;
12418;SDS011;6273;52.312;9.178;2022-08-20T19:07:34;8.43;;;1.80;;
12418;SDS011;6273;52.312;9.178;2022-08-20T19:15:25;4.77;;;2.37;;
12418;SDS011;6273;52.312;9.178;2022-08-20T19:20:28;6.53;;;1.83;;
12418;SDS011;6273;52.312;9.178;2022-08-20T19:23:02;3.60;;;2.00;;
12418;SDS011;6273;52.312;9.178;2022-08-20T19:25:36;2.57;;;1.93;;
12418;SDS011;6273;52.312;9.178;2022-08-20T19:31:12;5.70;;;2.80;;
12418;SDS011;6273;52.312;9.178;2022-08-20T19:33:41;4.90;;;2.10;;
12418;SDS011;6273;52.312;9.178;2022-08-20T19:36:21;6.70;;;2.53;;
12418;SDS011;6273;52.312;9.178;2022-08-20T19:38:56;3.83;;;2.23;;
12418;SDS011;6273;52.312;9.178;2022-08-20T19:41:34;5.43;;;2.13;;
12418;SDS011;6273;52.312;9.178;2022-08-20T19:44:05;4.37;;;2.17;;
12418;SDS011;6273;52.312;9.178;2022-08-20T19:52:04;4.23;;;1.90;;
12418;SDS011;6273;52.312;9.178;2022-08-20T19:54:46;4.17;;;1.87;;
12418;SDS011;6273;52.312;9.178;2022-08-20T19:57:15;5.67;;;2.60;;
12418;SDS011;6273;52.312;9.178;2022-08-20T19:59:59;4.97;;;2.93;;
12418;SDS011;6273;52.312;9.178;2022-08-20T20:02:31;3.40;;;2.30;;
12418;SDS011;6273;52.312;9.178;2022-08-20T20:04:58;4.73;;;3.20;;
12418;SDS011;6273;52.312;9.178;2022-08-20T20:07:34;3.97;;;2.70;;
12418;SDS011;6273;52.312;9.178;2022-08-20T20:10:05;3.00;;;1.90;;
12418;SDS011;6273;52.312;9.178;2022-08-20T20:12:34;11.33;;;3.50;;
12418;SDS011;6273;52.312;9.178;2022-08-20T20:15:00;3.43;;;2.20;;
12418;SDS011;6273;52.312;9.178;2022-08-20T20:17:27;3.93;;;2.67;;
12418;SDS011;6273;52.312;9.178;2022-08-20T20:19:59;6.67;;;4.07;;
12418;SDS011;6273;52.312;9.178;2022-08-20T20:22:27;4.23;;;3.00;;
12418;SDS011;6273;52.312;9.178;2022-08-20T20:28:05;3.50;;;3.10;;
12418;SDS011;6273;52.312;9.178;2022-08-20T20:30:33;2.23;;;2.00;;
12418;SDS011;6273;52.312;9.178;2022-08-20T20:33:14;6.00;;;2.50;;
12418;SDS011;6273;52.312;9.178;2022-08-20T20:35:47;7.20;;;3.20;;
12418;SDS011;6273;52.312;9.178;2022-08-20T20:38:25;2.90;;;2.07;;
12418;SDS011;6273;52.312;9.178;2022-08-20T20:40:56;7.07;;;2.43;;
12418;SDS011;6273;52.312;9.178;2022-08-20T20:43:32;5.63;;;2.83;;
12418;SDS011;6273;52.312;9.178;2022-08-20T20:46:03;5.13;;;2.57;;
12418;SDS011;6273;52.312;9.178;2022-08-20T20:48:40;5.50;;;2.60;;
12418;SDS011;6273;52.312;9.178;2022-08-20T20:51:22;10.77;;;4.40;;
12418;SDS011;6273;52.312;9.178;2022-08-20T20:53:50;6.40;;;3.00;;
12418;SDS011;6273;52.312;9.178;2022-08-20T21:09:06;5.17;;;3.40;;
12418;SDS011;6273;52.312;9.178;2022-08-20T21:11:32;3.53;;;2.70;;
12418;SDS011;6273;52.312;9.178;2022-08-20T21:13:58;6.13;;;2.60;;
12418;SDS011;6273;52.312;9.178;2022-08-20T21:16:24;3.73;;;3.13;;
12418;SDS011;6273;52.312;9.178;2022-08-20T21:18:49;5.60;;;3.53;;
12418;SDS011;6273;52.312;9.178;2022-08-20T21:21:15;8.10;;;4.50;;
12418;SDS011;6273;52.312;9.178;2022-08-20T21:23:41;8.17;;;3.60;;
12418;SDS011;6273;52.312;9.178;2022-08-20T21:26:06;10.27;;;4.27;;
12418;SDS011;6273;52.312;9.178;2022-08-20T21:28:32;7.90;;;3.83;;
12418;SDS011;6273;52.312;9.178;2022-08-20T21:30:59;12.07;;;4.60;;
12418;SDS011;6273;52.312;9.178;2022-08-20T21:33:25;8.03;;;4.07;;
12418;SDS011;6273;52.312;9.178;2022-08-20T21:35:51;12.10;;;3.47;;
12418;SDS011;6273;52.312;9.178;2022-08-20T21:38:17;7.00;;;3.63;;
12418;SDS011;6273;52.312;9.178;2022-08-20T21:40:42;6.60;;;3.23;;
12418;SDS011;6273;52.312;9.178;2022-08-20T21:43:08;8.60;;;3.57;;
12418;SDS011;6273;52.312;9.178;2022-08-20T21:45:35;5.23;;;2.50;;
12418;SDS011;6273;52.312;9.178;2022-08-20T21:48:01;7.60;;;3.13;;
12418;SDS011;6273;52.312;9.178;2022-08-20T21:50:27;4.33;;;3.57;;
12418;SDS011;6273;52.312;9.178;2022-08-20T21:52:53;3.83;;;2.23;;
12418;SDS011;6273;52.312;9.178;2022-08-20T21:55:18;5.30;;;2.33;;
12418;SDS011;6273;52.312;9.178;2022-08-20T21:57:45;7.40;;;3.07;;
12418;SDS011;6273;52.312;9.178;2022-08-20T22:00:19;12.27;;;3.93;;
12418;SDS011;6273;52.312;9.178;2022-08-20T22:03:25;5.63;;;2.50;;
12418;SDS011;6273;52.312;9.178;2022-08-20T22:05:53;10.83;;;2.77;;
12418;SDS011;6273;52.312;9.178;2022-08-20T22:08:19;5.53;;;2.33;;
12418;SDS011;6273;52.312;9.178;2022-08-20T22:10:46;7.70;;;2.20;;
12418;SDS011;6273;52.312;9.178;2022-08-20T22:13:12;6.90;;;2.80;;
12418;SDS011;6273;52.312;9.178;2022-08-20T22:15:38;7.47;;;2.50;;
12418;SDS011;6273;52.312;9.178;2022-08-20T22:18:04;5.50;;;2.83;;
12418;SDS011;6273;52.312;9.178;2022-08-20T22:20:30;9.27;;;3.50;;
12418;SDS011;6273;52.312;9.178;2022-08-20T22:22:56;15.40;;;3.77;;
12418;SDS011;6273;52.312;9.178;2022-08-20T22:25:22;7.60;;;3.20;;
12418;SDS011;6273;52.312;9.178;2022-08-20T22:27:47;8.23;;;3.43;;
12418;SDS011;6273;52.312;9.178;2022-08-20T22:30:13;3.63;;;2.33;;
12418;SDS011;6273;52.312;9.178;2022-08-20T22:32:39;7.80;;;2.77;;
12418;SDS011;6273;52.312;9.178;2022-08-20T22:35:05;8.60;;;3.07;;
12418;SDS011;6273;52.312;9.178;2022-08-20T22:37:33;5.37;;;2.60;;
12418;SDS011;6273;52.312;9.178;2022-08-20T22:43:32;4.87;;;2.77;;
12418;SDS011;6273;52.312;9.178;2022-08-20T22:56:58;4.47;;;2.90;;
12418;SDS011;6273;52.312;9.178;2022-08-20T22:59:29;8.23;;;3.20;;
12418;SDS011;6273;52.312;9.178;2022-08-20T23:05:12;15.10;;;2.80;;
12418;SDS011;6273;52.312;9.178;2022-08-20T23:17:16;4.70;;;2.20;;
12418;SDS011;6273;52.312;9.178;2022-08-20T23:19:58;7.83;;;3.03;;
12418;SDS011;6273;52.312;9.178;2022-08-20T23:28:49;3.70;;;2.30;;
12418;SDS011;6273;52.312;9.178;2022-08-20T23:31:15;8.40;;;2.30;;
12418;SDS011;6273;52.312;9.178;2022-08-20T23:33:40;2.83;;;1.90;;
12418;SDS011;6273;52.312;9.178;2022-08-20T23:36:06;3.77;;;2.57;;
12418;SDS011;6273;52.312;9.178;2022-08-20T23:38:34;4.60;;;2.53;;
12418;SDS011;6273;52.312;9.178;2022-08-20T23:41:00;5.43;;;3.30;;
12418;SDS011;6273;52.312;9.178;2022-08-20T23:43:26;5.00;;;3.20;;
12418;SDS011;6273;52.312;9.178;2022-08-20T23:45:52;7.90;;;2.50;;
12418;SDS011;6273;52.312;9.178;2022-08-20T23:48:19;11.10;;;4.17;;
12418;SDS011;6273;52.312;9.178;2022-08-20T23:50:45;7.00;;;2.23;;
12418;SDS011;6273;52.312;9.178;2022-08-20T23:53:11;3.47;;;2.80;;
12418;SDS011;6273;52.312;9.178;2022-08-20T23:55:37;5.00;;;2.40;;
12418;SDS011;6273;52.312;9.178;2022-08-20T23:58:03;8.73;;;2.13;;
